Time;durP1;ratioP1;P1;durP2;ratioP2;P2;SDS_P1;SDS_P2;PMS_P1;PMS_P2;Temp;Humidity;BMP_temperature;BMP_pressure;BME280_temperature;BME280_humidity;BME280_pressure;Samples;Min_cycle;Max_cycle;Signal;HPM_P1;HPM_P2
2022/09/08 00:04:29;;;;;;;9.57;1.40;;;;;;;21.93;46.28;100310.97;4968025;28;20618;-66
2022/09/08 00:07:47;;;;;;;6.33;1.20;;;;;;;21.99;46.51;100309.75;4970800;28;20640;-66
2022/09/08 00:10:49;;;;;;;8.00;1.40;;;;;;;22.11;46.11;100313.41;4968574;28;20356;-67
2022/09/08 00:13:35;;;;;;;11.33;1.50;;;;;;;22.13;45.49;100306.19;4970829;28;20287;-66
2022/09/08 00:19:11;;;;;;;22.03;2.37;;;;;;;22.08;45.78;100295.00;5037570;28;20724;-66
2022/09/08 00:22:10;;;;;;;11.63;1.53;;;;;;;22.27;44.56;100318.66;5020554;28;20309;-67
2022/09/08 00:25:20;;;;;;;10.37;1.43;;;;;;;22.18;44.42;100320.06;5038506;28;20847;-66
2022/09/08 00:28:17;;;;;;;31.13;2.23;;;;;;;22.08;41.38;100325.13;5101441;28;20286;-67
2022/09/08 00:31:11;;;;;;;9.80;1.10;;;;;;;22.07;44.25;100317.25;5101178;28;20286;-68
2022/09/08 00:33:52;;;;;;;8.57;1.27;;;;;;;22.20;44.27;100302.22;5100598;28;20286;-66
2022/09/08 00:37:52;;;;;;;14.73;1.67;;;;;;;22.37;43.55;100299.34;5085968;28;20298;-67
2022/09/08 00:40:52;;;;;;;10.63;1.43;;;;;;;22.29;42.94;100301.66;5024558;28;20284;-69
2022/09/08 00:43:58;;;;;;;17.73;2.57;;;;;;;22.16;41.09;100298.00;5027449;28;20375;-67
2022/09/08 00:46:48;;;;;;;7.50;1.17;;;;;;;22.20;42.55;100312.88;5029855;28;20289;-67
2022/09/08 00:49:30;;;;;;;8.27;1.50;;;;;;;22.16;43.29;100274.06;5028291;28;20296;-67
2022/09/08 00:53:01;;;;;;;18.90;1.80;;;;;;;22.46;42.38;100297.00;5027726;28;20468;-68
2022/09/08 00:56:05;;;;;;;23.13;2.63;;;;;;;22.49;40.95;100286.16;5027665;28;20284;-68
2022/09/08 00:59:06;;;;;;;9.23;1.13;;;;;;;22.52;41.84;100288.63;5028002;28;20064;-69
2022/09/08 01:02:25;;;;;;;7.15;1.20;;;;;;;22.57;42.23;100273.22;5027698;28;20276;-68
2022/09/08 01:05:57;;;;;;;14.47;1.00;;;;;;;22.67;41.63;100242.34;5025184;28;20049;-68
2022/09/08 01:15:42;;;;;;;5.20;1.40;;;;;;;22.85;43.13;100207.44;4991428;28;20278;-68
2022/09/08 01:18:30;;;;;;;9.63;1.30;;;;;;;23.19;42.17;100244.16;4990949;28;20302;-69
2022/09/08 01:21:25;;;;;;;12.17;1.73;;;;;;;23.01;41.85;100216.09;4962976;28;20296;-68
2022/09/08 01:24:52;;;;;;;10.97;1.93;;;;;;;23.29;41.31;100249.69;4991836;28;20057;-67
2022/09/08 01:27:48;;;;;;;17.65;1.45;;;;;;;23.37;42.04;100238.50;4951920;28;20357;-68
2022/09/08 01:30:35;;;;;;;5.00;1.10;;;;;;;23.38;41.16;100232.19;4991365;28;20056;-68
2022/09/08 01:33:16;;;;;;;16.30;0.97;;;;;;;23.51;40.65;100246.34;4993447;28;20327;-68
2022/09/08 01:36:25;;;;;;;6.83;0.80;;;;;;;23.63;40.43;100250.81;4992457;28;20054;-67
2022/09/08 01:39:34;;;;;;;4.63;1.10;;;;;;;23.72;41.62;100235.16;4960150;28;20068;-68
2022/09/08 01:42:45;;;;;;;20.77;1.83;;;;;;;23.79;40.30;100239.09;4950953;28;20118;-70
2022/09/08 01:46:33;;;;;;;10.40;1.17;;;;;;;23.97;41.18;100243.09;4987125;28;20081;-69
2022/09/08 01:49:43;;;;;;;17.40;1.40;;;;;;;24.04;39.70;100228.34;4990427;28;20061;-68
2022/09/08 01:52:59;;;;;;;3.83;0.87;;;;;;;24.04;41.02;100220.34;4964376;28;20343;-68
2022/09/08 01:55:51;;;;;;;9.90;1.00;;;;;;;24.10;41.21;100214.53;4990396;28;20057;-67
2022/09/08 01:58:45;;;;;;;64.77;3.37;;;;;;;23.99;41.79;100198.50;4990071;28;21088;-68
2022/09/08 02:01:22;;;;;;;7.60;0.70;;;;;;;24.14;39.12;100225.88;4992388;28;20046;-69
2022/09/08 02:03:58;;;;;;;9.07;1.00;;;;;;;24.15;39.97;100216.03;4990118;28;20188;-67
2022/09/08 02:07:37;;;;;;;18.73;1.00;;;;;;;24.16;38.30;100217.72;4991292;28;20311;-68
2022/09/08 02:10:16;;;;;;;6.47;0.90;;;;;;;24.17;39.33;100222.13;4991557;28;20479;-67
2022/09/08 02:12:58;;;;;;;5.95;1.25;;;;;;;24.16;38.98;100207.06;5013186;28;20092;-67
2022/09/08 02:15:48;;;;;;;2.03;0.67;;;;;;;24.18;38.84;100218.47;4993900;28;20067;-67
2022/09/08 02:18:56;;;;;;;2.47;0.85;;;;;;;24.27;39.03;100204.44;5028618;28;20077;-66
2022/09/08 02:21:55;;;;;;;10.27;0.80;;;;;;;24.16;38.28;100207.91;5030938;28;20046;-68
2022/09/08 02:25:15;;;;;;;7.03;0.90;;;;;;;24.26;37.68;100203.59;5031553;28;20112;-67
2022/09/08 02:27:57;;;;;;;4.40;0.87;;;;;;;24.22;38.24;100174.56;5030401;28;20353;-68
2022/09/08 02:30:44;;;;;;;2.60;0.70;;;;;;;24.39;39.02;100198.19;5031787;28;20077;-68
2022/09/08 02:33:24;;;;;;;10.47;1.13;;;;;;;24.45;37.75;100197.75;5030431;28;20064;-68
2022/09/08 02:36:25;;;;;;;14.70;1.13;;;;;;;24.28;37.87;100142.06;5030318;28;20057;-67
2022/09/08 02:39:26;;;;;;;6.93;0.60;;;;;;;24.49;36.37;100182.38;5029201;28;20095;-68
2022/09/08 02:42:32;;;;;;;12.47;1.53;;;;;;;24.51;37.08;100180.41;5031523;28;20068;-68
2022/09/08 02:48:32;;;;;;;;;;;;;;;;;;;;;
2022/09/08 02:51:12;;;;;;;35.83;1.90;;;;;;;24.39;35.03;100166.16;5008078;28;20229;-68
2022/09/08 02:54:08;;;;;;;20.37;1.30;;;;;;;24.31;35.65;100164.06;5026789;28;20050;-68
2022/09/08 02:56:46;;;;;;;7.83;0.60;;;;;;;24.47;35.77;100179.78;5012286;28;20053;-68
2022/09/08 02:59:27;;;;;;;154.60;10.30;;;;;;;24.19;35.92;100132.06;5028577;28;20418;-68
2022/09/08 03:02:32;;;;;;;28.37;1.70;;;;;;;24.50;35.74;100171.53;5031414;28;20091;-69
2022/09/08 03:05:26;;;;;;;11.00;1.50;;;;;;;24.59;36.37;100174.47;5017439;28;20060;-68
2022/09/08 03:08:20;;;;;;;5.23;0.90;;;;;;;24.63;36.66;100170.59;5029747;28;20104;-69
2022/09/08 03:10:56;;;;;;;15.17;1.07;;;;;;;24.66;35.69;100168.56;5031050;28;20061;-68
2022/09/08 03:13:39;;;;;;;6.97;0.93;;;;;;;24.30;36.28;100121.44;5031016;28;20096;-67
2022/09/08 03:16:21;;;;;;;7.43;1.00;;;;;;;24.61;36.17;100175.22;5031642;28;20076;-68
2022/09/08 03:19:15;;;;;;;5.23;0.80;;;;;;;24.63;36.78;100168.78;4987460;28;20149;-67
2022/09/08 03:22:03;;;;;;;8.77;1.33;;;;;;;24.72;35.83;100183.28;5029263;28;20072;-68
2022/09/08 03:24:46;;;;;;;36.47;2.30;;;;;;;24.65;35.13;100176.69;5029499;28;20053;-68
2022/09/08 03:27:31;;;;;;;6.60;1.03;;;;;;;24.56;36.25;100182.72;5028965;28;20080;-68
2022/09/08 03:30:12;;;;;;;14.97;0.90;;;;;;;24.42;35.74;100165.06;4999677;28;20949;-68
2022/09/08 03:33:01;;;;;;;4.43;0.70;;;;;;;24.49;36.09;100193.03;5029635;28;20116;-68
2022/09/08 03:35:55;;;;;;;38.58;2.53;;;;;;;24.48;36.54;100186.81;5027976;28;20045;-68
2022/09/08 03:38:48;;;;;;;10.53;1.37;;;;;;;24.55;36.16;100187.22;5014745;28;20066;-69
2022/09/08 03:41:24;;;;;;;9.97;0.97;;;;;;;24.58;36.26;100207.50;5028681;28;20049;-67
2022/09/08 03:44:02;;;;;;;4.87;0.80;;;;;;;24.48;36.97;100202.84;5028879;28;20067;-69
2022/09/08 03:46:54;;;;;;;34.23;1.80;;;;;;;24.51;35.74;100201.78;5028710;28;20061;-67
2022/09/08 03:49:38;;;;;;;8.10;1.13;;;;;;;24.43;36.37;100205.00;5028278;28;20046;-67
2022/09/08 03:52:26;;;;;;;12.13;0.90;;;;;;;24.43;36.37;100205.00;5027380;28;20069;-68
2022/09/08 03:55:13;;;;;;;33.10;2.15;;;;;;;24.36;36.67;100198.41;4996613;28;20072;-68
2022/09/08 03:58:05;;;;;;;4.93;0.87;;;;;;;24.41;37.64;100200.72;5027548;28;20049;-68
2022/09/08 04:01:05;;;;;;;7.27;0.90;;;;;;;24.37;37.05;100194.78;5028388;28;20112;-69
2022/09/08 04:04:09;;;;;;;3.27;0.83;;;;;;;24.33;37.12;100198.63;5028314;28;20390;-68
2022/09/08 04:07:38;;;;;;;5.80;1.10;;;;;;;24.15;36.97;100184.84;4961266;29;20130;-65
2022/09/08 04:10:44;;;;;;;6.75;0.85;;;;;;;24.23;37.55;100186.94;4961448;29;20332;-65
2022/09/08 04:13:54;;;;;;;21.57;1.40;;;;;;;24.28;37.70;100184.78;4961063;29;20039;-66
2022/09/08 04:16:56;;;;;;;8.50;0.87;;;;;;;24.13;37.53;100164.56;4975964;28;20137;-69
2022/09/08 04:19:45;;;;;;;6.47;0.60;;;;;;;24.19;36.74;100190.78;4994059;28;20056;-66
2022/09/08 04:23:00;;;;;;;33.37;1.90;;;;;;;24.12;36.31;100185.09;5019070;28;20045;-67
2022/09/08 04:26:03;;;;;;;18.77;1.30;;;;;;;24.07;37.06;100177.41;5017955;28;20059;-66
2022/09/08 04:38:26;;;;;;;28.83;2.30;;;;;;;24.30;37.56;100172.19;5019219;28;20080;-68
2022/09/08 04:44:24;;;;;;;3.00;0.73;;;;;;;24.00;37.15;100149.47;5018645;28;20180;-67
2022/09/08 04:47:18;;;;;;;3.33;0.90;;;;;;;24.02;35.99;100163.56;5008580;28;20092;-68
2022/09/08 04:50:44;;;;;;;4.10;0.80;;;;;;;24.06;38.11;100169.50;5023175;28;20115;-68
2022/09/08 04:54:01;;;;;;;10.27;0.90;;;;;;;24.27;38.64;100177.75;4981778;28;20286;-67
2022/09/08 04:57:11;;;;;;;11.93;0.90;;;;;;;24.15;38.45;100146.63;5000880;28;20053;-67
2022/09/08 05:00:12;;;;;;;4.85;0.85;;;;;;;24.24;37.76;100175.31;5023117;28;20084;-65
2022/09/08 05:03:59;;;;;;;9.40;0.90;;;;;;;24.17;38.51;100166.06;5022214;28;20086;-66
2022/09/08 05:07:00;;;;;;;3.63;0.80;;;;;;;24.20;38.39;100165.81;5022763;28;20064;-67
2022/09/08 05:09:47;;;;;;;8.97;1.20;;;;;;;24.16;38.55;100164.34;5022504;28;20238;-66
2022/09/08 05:15:54;;;;;;;17.37;1.53;;;;;;;23.95;38.60;100130.28;5022820;28;20108;-66
2022/09/08 05:21:26;;;;;;;4.90;1.10;;;;;;;24.20;39.15;100155.16;5022643;28;20053;-68
2022/09/08 05:24:16;;;;;;;4.37;0.80;;;;;;;24.16;40.36;100153.66;5022518;28;20132;-68
2022/09/08 05:27:22;;;;;;;25.43;1.67;;;;;;;24.10;41.00;100161.16;4993564;28;20056;-67
2022/09/08 05:30:08;;;;;;;4.73;0.77;;;;;;;23.94;40.56;100138.38;5022462;28;20116;-67
2022/09/08 05:32:48;;;;;;;3.57;1.00;;;;;;;23.86;40.98;100133.63;4973147;28;20307;-68
2022/09/08 05:38:41;;;;;;;4.27;1.17;;;;;;;23.80;41.23;100142.09;5002729;28;20058;-66
2022/09/08 05:41:34;;;;;;;73.13;4.90;;;;;;;23.83;41.48;100152.53;5001688;28;20216;-71
2022/09/08 05:44:25;;;;;;;15.23;1.53;;;;;;;23.77;41.26;100156.50;5002502;28;20050;-68
2022/09/08 05:47:52;;;;;;;46.47;3.40;;;;;;;23.71;40.58;100161.41;5002221;28;20122;-67
2022/09/08 05:51:23;;;;;;;11.53;1.07;;;;;;;23.56;41.13;100166.88;5002351;28;20061;-67
2022/09/08 05:54:26;;;;;;;12.37;1.27;;;;;;;23.48;40.73;100163.91;5001864;28;20061;-66
2022/09/08 05:57:13;;;;;;;6.30;1.23;;;;;;;23.45;40.89;100169.47;5002331;28;20057;-66
2022/09/08 05:59:58;;;;;;;7.20;1.10;;;;;;;23.42;41.17;100175.88;5000680;28;20054;-67
2022/09/08 06:02:40;;;;;;;27.13;2.83;;;;;;;23.42;41.37;100186.53;5001613;28;20274;-66
2022/09/08 06:05:22;;;;;;;8.55;1.50;;;;;;;23.37;41.92;100171.84;4965859;28;20057;-65
2022/09/08 06:08:09;;;;;;;14.00;1.40;;;;;;;23.27;41.66;100181.47;5002200;28;20065;-66
2022/09/08 06:10:54;;;;;;;9.90;1.27;;;;;;;23.24;41.40;100196.69;5002013;28;20042;-66
2022/09/08 06:13:30;;;;;;;6.93;1.00;;;;;;;23.18;42.53;100205.13;5001991;28;20134;-68
2022/09/08 06:19:29;;;;;;;9.67;1.10;;;;;;;23.00;42.50;100214.41;5002189;28;20052;-66
2022/09/08 06:22:04;;;;;;;9.57;1.30;;;;;;;22.97;43.33;100212.78;5001978;28;20089;-66
2022/09/08 06:24:48;;;;;;;10.77;1.30;;;;;;;23.02;44.62;100220.47;4962759;28;20061;-66
2022/09/08 06:27:30;;;;;;;10.48;1.50;;;;;;;22.86;43.15;100212.63;5000902;28;20046;-65
2022/09/08 06:30:18;;;;;;;17.63;1.70;;;;;;;22.45;42.90;100172.84;5001451;28;20081;-67
2022/09/08 06:32:59;;;;;;;30.57;3.00;;;;;;;22.74;43.01;100237.44;5001669;28;20065;-66
2022/09/08 06:35:42;;;;;;;53.90;3.87;;;;;;;22.39;43.47;100190.94;4956055;28;20380;-66
2022/09/08 06:38:21;;;;;;;32.17;2.77;;;;;;;22.58;43.51;100230.50;5017834;28;20061;-67
2022/09/08 06:45:36;;;;;;;55.07;4.17;;;;;;;22.51;43.85;100236.31;5020607;28;20293;-66
2022/09/08 06:55:57;;;;;;;20.65;2.20;;;;;;;22.33;44.00;100254.38;5098803;28;20275;-66
2022/09/08 06:59:02;;;;;;;6.57;1.27;;;;;;;22.21;43.78;100250.69;5069945;28;20097;-64
2022/09/08 07:04:54;;;;;;;16.57;1.43;;;;;;;22.04;44.24;100253.56;5098143;28;20063;-65
2022/09/08 07:07:47;;;;;;;43.07;2.90;;;;;;;21.91;44.65;100257.00;5098079;28;20063;-65
2022/09/08 07:10:41;;;;;;;32.63;2.07;;;;;;;21.72;45.33;100237.88;5079650;28;20325;-66
2022/09/08 07:13:48;;;;;;;26.80;2.57;;;;;;;21.78;45.58;100258.75;5098394;28;20294;-65
2022/09/08 07:16:54;;;;;;;15.17;2.10;;;;;;;21.70;45.49;100259.22;5097393;28;20282;-65
2022/09/08 07:19:51;;;;;;;10.53;1.17;;;;;;;21.64;45.80;100266.72;5097881;28;20331;-64
2022/09/08 07:23:01;;;;;;;5.53;1.37;;;;;;;21.58;46.08;100267.13;5062472;28;20330;-65
2022/09/08 07:25:52;;;;;;;11.05;1.52;;;;;;;21.51;46.59;100280.78;5096293;28;20300;-67
2022/09/08 07:28:35;;;;;;;14.23;1.73;;;;;;;21.44;47.13;100282.13;5097051;28;20080;-66
2022/09/08 07:31:25;;;;;;;9.93;1.10;;;;;;;21.32;47.18;100280.19;5097445;28;20310;-65
2022/09/08 07:34:07;;;;;;;6.43;1.00;;;;;;;21.28;46.86;100276.00;5096947;28;20302;-65
2022/09/08 07:36:59;;;;;;;6.60;1.00;;;;;;;21.24;47.26;100279.78;5097593;28;20052;-67
2022/09/08 07:39:49;;;;;;;15.80;1.63;;;;;;;21.14;47.48;100278.63;5070013;28;20294;-67
2022/09/08 07:42:50;;;;;;;48.47;3.83;;;;;;;20.86;47.54;100259.03;5097122;28;20299;-65
2022/09/08 07:45:45;;;;;;;9.87;1.07;;;;;;;20.96;47.65;100284.09;5035232;28;20323;-66
2022/09/08 07:48:36;;;;;;;7.07;1.00;;;;;;;20.83;47.21;100276.00;5096686;28;20317;-65
2022/09/08 07:51:16;;;;;;;7.77;1.37;;;;;;;20.83;47.46;100285.75;5094932;28;20396;-64
2022/09/08 07:54:17;;;;;;;32.30;2.67;;;;;;;20.72;48.29;100277.56;5054661;28;20287;-66
2022/09/08 07:57:05;;;;;;;16.73;1.73;;;;;;;20.51;48.42;100259.25;5096666;28;20282;-65
2022/09/08 08:00:11;;;;;;;8.90;1.30;;;;;;;20.42;48.79;100265.94;5096115;28;20544;-66
2022/09/08 08:03:15;;;;;;;11.20;1.63;;;;;;;20.44;49.38;100297.69;5079898;28;20299;-66
2022/09/08 08:06:13;;;;;;;20.08;1.73;;;;;;;20.31;49.85;100288.72;5064859;28;20297;-66
2022/09/08 08:09:13;;;;;;;47.43;2.70;;;;;;;20.33;50.01;100300.13;5082938;28;20100;-64
2022/09/08 08:12:06;;;;;;;7.57;1.37;;;;;;;20.22;50.16;100303.38;5082565;28;20318;-65
2022/09/08 08:14:53;;;;;;;9.87;1.27;;;;;;;20.07;50.02;100286.53;5081650;28;21043;-65
2022/09/08 08:18:00;;;;;;;4.30;1.10;;;;;;;20.04;50.93;100307.88;5083290;28;20278;-64
2022/09/08 08:20:51;;;;;;;10.10;1.47;;;;;;;19.97;51.34;100303.88;5083105;28;20294;-67
2022/09/08 08:24:05;;;;;;;5.37;1.20;;;;;;;19.85;51.97;100296.59;5082787;28;20381;-65
2022/09/08 08:27:01;;;;;;;5.43;1.20;;;;;;;19.67;52.58;100290.44;5082901;28;20291;-65
2022/09/08 08:30:06;;;;;;;55.57;5.00;;;;;;;19.60;53.07;100297.88;5010240;28;20291;-67
2022/09/08 08:32:59;;;;;;;24.97;14.50;;;;;;;19.45;53.54;100298.69;5083229;28;20283;-66
2022/09/08 08:35:42;;;;;;;31.00;16.67;;;;;;;19.35;53.52;100288.56;5082208;28;20968;-66
2022/09/08 08:38:19;;;;;;;46.23;27.27;;;;;;;18.92;53.73;100227.25;5082894;28;20564;-63
2022/09/08 08:41:00;;;;;;;47.53;12.93;;;;;;;19.16;53.98;100285.16;5041895;28;20279;-64
2022/09/08 08:44:24;;;;;;;14.50;4.40;;;;;;;19.12;54.02;100296.84;5082986;28;20298;-65
2022/09/08 08:47:48;;;;;;;10.43;2.03;;;;;;;18.98;55.04;100304.66;5055500;28;20368;-65
2022/09/08 08:50:58;;;;;;;7.87;2.20;;;;;;;18.82;55.98;100305.41;5040596;28;20322;-65
2022/09/08 08:54:14;;;;;;;6.97;2.00;;;;;;;18.71;56.83;100312.97;5041939;28;20290;-64
2022/09/08 08:57:03;;;;;;;30.37;2.83;;;;;;;18.56;57.67;100314.59;5063975;28;20309;-64
2022/09/08 09:00:17;;;;;;;13.20;2.22;;;;;;;18.44;58.31;100318.69;5081569;28;20356;-62
2022/09/08 09:03:09;;;;;;;14.17;2.03;;;;;;;18.27;58.63;100323.91;5082504;28;20048;-63
2022/09/08 09:06:58;;;;;;;17.17;1.80;;;;;;;18.17;59.41;100317.34;5080678;28;20313;-62
2022/09/08 09:10:34;;;;;;;77.30;8.80;;;;;;;18.05;59.98;100327.59;5082559;28;20372;-61
2022/09/08 09:13:58;;;;;;;47.40;23.13;;;;;;;17.97;60.09;100327.09;5000051;28;20351;-62
2022/09/08 09:17:02;;;;;;;30.00;18.43;;;;;;;17.89;60.34;100326.56;4934524;29;20299;-63
2022/09/08 09:20:28;;;;;;;13.27;5.23;;;;;;;17.85;60.49;100336.44;5000393;28;20293;-63
2022/09/08 09:23:24;;;;;;;16.80;3.13;;;;;;;17.79;60.94;100339.28;4976105;28;20345;-61
2022/09/08 09:26:21;;;;;;;8.67;2.60;;;;;;;17.55;61.26;100320.13;5000709;28;20313;-63
2022/09/08 09:29:22;;;;;;;16.43;3.53;;;;;;;17.74;61.26;100356.28;4999049;28;20277;-62
2022/09/08 09:32:59;;;;;;;10.47;2.23;;;;;;;17.72;61.61;100363.44;5000738;28;20298;-62
2022/09/08 09:36:00;;;;;;;10.20;1.90;;;;;;;17.66;61.55;100360.13;5000713;28;20357;-62
2022/09/08 09:39:22;;;;;;;8.13;1.70;;;;;;;17.64;62.13;100361.13;5000531;28;20282;-62
2022/09/08 09:42:33;;;;;;;18.90;2.90;;;;;;;17.53;62.04;100358.97;4973688;28;20297;-63
2022/09/08 09:45:44;;;;;;;28.40;3.27;;;;;;;17.59;62.36;100374.53;5081432;28;20499;-62
2022/09/08 09:48:47;;;;;;;;;;;;;;;17.58;62.34;100375.47;5020488;28;20301;-64
2022/09/08 09:51:41;;;;;;;22.20;2.07;;;;;;;17.46;62.39;100357.50;5064835;28;19916;-63
2022/09/08 09:54:46;;;;;;;8.37;1.60;;;;;;;17.59;62.29;100390.38;5078837;28;20283;-64
2022/09/08 09:58:13;;;;;;;6.60;1.60;;;;;;;17.63;62.03;100396.41;5080732;28;20283;-65
2022/09/08 10:01:23;;;;;;;10.07;1.87;;;;;;;17.55;62.15;100399.41;5000095;28;20429;-66
2022/09/08 10:04:35;;;;;;;20.00;2.90;;;;;;;17.54;62.36;100397.66;5080930;28;20323;-65
2022/09/08 10:07:46;;;;;;;6.43;1.40;;;;;;;17.52;62.45;100407.44;5076281;28;20303;-64
2022/09/08 10:10:54;;;;;;;5.83;1.60;;;;;;;17.47;62.66;100414.69;5077848;28;20302;-63
2022/09/08 10:14:02;;;;;;;11.17;1.60;;;;;;;17.47;62.59;100417.34;5080797;28;20283;-63
2022/09/08 10:20:43;;;;;;;8.20;1.40;;;;;;;17.38;62.77;100417.75;5080773;28;20298;-64
2022/09/08 10:27:17;;;;;;;9.87;1.50;;;;;;;17.28;63.56;100426.97;4989977;28;20306;-63
2022/09/08 10:30:25;;;;;;;19.27;2.07;;;;;;;17.31;63.37;100424.19;4989713;28;20282;-66
2022/09/08 10:33:40;;;;;;;9.00;2.00;;;;;;;17.26;63.71;100429.66;4991440;28;20302;-65
2022/09/08 10:36:20;;;;;;;9.10;1.47;;;;;;;17.18;64.32;100437.91;4960378;29;20302;-62
2022/09/08 10:39:09;;;;;;;6.13;1.57;;;;;;;17.03;64.53;100433.25;4960549;28;20322;-64
2022/09/08 10:42:36;;;;;;;13.03;1.83;;;;;;;17.13;64.19;100434.59;4960769;28;20283;-65
2022/09/08 10:45:46;;;;;;;6.47;1.73;;;;;;;17.17;64.32;100445.88;4959021;28;20336;-64
2022/09/08 10:52:10;;;;;;;5.90;1.50;;;;;;;16.95;64.42;100419.53;4960452;28;20321;-62
2022/09/08 10:55:27;;;;;;;11.07;1.87;;;;;;;17.10;64.66;100460.25;4984600;28;20305;-63
2022/09/08 10:58:49;;;;;;;8.50;1.50;;;;;;;17.04;64.87;100466.63;4984972;28;20306;-64
2022/09/08 11:01:56;;;;;;;8.50;1.63;;;;;;;17.01;65.15;100477.34;5047559;28;20290;-63
2022/09/08 11:05:17;;;;;;;7.43;1.40;;;;;;;16.95;65.15;100488.16;5072514;28;20303;-64
2022/09/08 11:08:31;;;;;;;7.57;1.70;;;;;;;16.93;65.42;100484.69;4998916;28;20929;-63
2022/09/08 11:12:21;;;;;;;6.80;1.60;;;;;;;16.87;65.75;100490.19;4996118;28;20488;-63
2022/09/08 11:15:42;;;;;;;6.97;1.90;;;;;;;16.80;66.18;100485.16;4999377;28;20310;-63
2022/09/08 11:18:45;;;;;;;5.00;1.23;;;;;;;16.58;66.45;100457.84;4998736;28;20298;-62
2022/09/08 11:21:32;;;;;;;10.40;2.00;;;;;;;16.63;66.64;100471.72;4998355;28;20285;-63
2022/09/08 11:24:22;;;;;;;17.40;2.75;;;;;;;16.64;66.75;100468.16;4961371;28;20277;-62
2022/09/08 11:27:13;;;;;;;5.37;1.40;;;;;;;16.58;66.92;100465.78;4998777;28;20054;-63
2022/09/08 11:30:26;;;;;;;7.97;1.60;;;;;;;16.43;67.33;100453.16;4999347;28;20287;-63
2022/09/08 11:33:32;;;;;;;7.50;1.53;;;;;;;16.38;68.01;100482.34;4999036;28;20297;-62
2022/09/08 11:36:36;;;;;;;3.40;1.30;;;;;;;16.24;68.67;100469.66;4956846;28;20286;-64
2022/09/08 11:39:35;;;;;;;8.77;1.93;;;;;;;16.08;69.46;100468.50;4975796;28;20304;-63
2022/09/08 11:42:48;;;;;;;9.77;2.00;;;;;;;15.96;70.35;100470.66;5002404;28;20309;-64
2022/09/08 11:45:47;;;;;;;11.77;1.93;;;;;;;15.73;70.93;100460.06;5066353;28;20052;-62
2022/09/08 11:48:59;;;;;;;6.80;1.67;;;;;;;15.63;71.54;100456.00;5084125;28;20317;-62
2022/09/08 11:52:08;;;;;;;9.13;2.00;;;;;;;15.53;71.78;100445.75;5082652;28;20348;-63
2022/09/08 11:55:35;;;;;;;9.83;1.83;;;;;;;15.46;72.26;100460.03;5083640;28;20263;-64
2022/09/08 11:58:51;;;;;;;8.80;2.00;;;;;;;15.28;73.04;100455.41;5083483;28;20610;-63
2022/09/08 12:02:06;;;;;;;14.80;1.77;;;;;;;15.14;73.57;100420.75;5060680;28;20323;-64
2022/09/08 12:05:27;;;;;;;7.67;1.63;;;;;;;15.20;73.55;100446.88;5083710;28;20355;-61
2022/09/08 12:08:50;;;;;;;9.87;2.37;;;;;;;15.14;74.06;100449.72;5054854;28;20271;-64
2022/09/08 12:12:00;;;;;;;18.07;2.53;;;;;;;15.02;74.09;100428.13;5083553;28;20304;-63
2022/09/08 12:17:58;;;;;;;14.47;1.93;;;;;;;14.93;74.92;100438.97;5083782;28;20287;-63
2022/09/08 12:21:18;;;;;;;6.90;1.87;;;;;;;14.91;75.08;100435.50;5083020;28;20931;-63
2022/09/08 12:24:05;;;;;;;5.13;1.63;;;;;;;14.93;75.04;100427.59;5080979;28;20465;-63
2022/09/08 12:27:02;;;;;;;25.17;2.70;;;;;;;14.99;74.77;100433.50;5047233;28;20287;-62
2022/09/08 12:30:02;;;;;;;34.35;4.72;;;;;;;15.06;74.26;100432.38;5083351;28;20354;-62
2022/09/08 12:33:16;;;;;;;23.70;4.00;;;;;;;15.05;73.88;100422.78;5082701;28;20080;-63
2022/09/08 12:36:29;;;;;;;14.77;2.07;;;;;;;15.15;73.29;100427.72;5082820;28;20286;-63
2022/09/08 12:39:42;;;;;;;10.37;2.17;;;;;;;15.15;73.39;100430.38;5073439;28;20317;-62
2022/09/08 12:42:48;;;;;;;7.70;1.60;;;;;;;15.07;73.58;100420.94;5082726;28;20341;-64
2022/09/08 12:45:49;;;;;;;8.50;1.77;;;;;;;15.12;73.12;100433.09;5083304;28;20290;-61
2022/09/08 12:48:35;;;;;;;7.33;1.90;;;;;;;14.95;73.30;100421.38;5083229;28;20340;-62
2022/09/08 12:51:22;;;;;;;10.17;1.73;;;;;;;14.82;73.87;100441.06;5081904;28;20275;-62
2022/09/08 12:54:33;;;;;;;9.60;1.93;;;;;;;14.64;74.72;100443.34;5081143;28;20378;-62
2022/09/08 12:57:38;;;;;;;6.47;1.83;;;;;;;14.52;75.52;100441.03;5023424;28;20321;-61
2022/09/08 13:00:30;;;;;;;5.63;1.67;;;;;;;14.12;76.46;100387.00;5082528;28;20675;-62
2022/09/08 13:06:55;;;;;;;11.87;2.70;;;;;;;13.92;76.82;100356.06;5082500;28;20279;-62
2022/09/08 13:09:52;;;;;;;17.80;2.70;;;;;;;14.16;77.36;100404.44;5082761;28;20282;-62
2022/09/08 13:13:19;;;;;;;11.38;2.17;;;;;;;14.37;77.42;100433.63;5081692;28;20100;-63
2022/09/08 13:16:09;;;;;;;15.40;4.45;;;;;;;14.07;77.34;100383.66;4975349;28;20064;-62
2022/09/08 13:19:07;;;;;;;14.15;3.88;;;;;;;14.36;77.71;100422.25;5041314;28;20069;-63
2022/09/08 13:25:18;;;;;;;15.73;3.28;;;;;;;14.22;78.73;100422.63;5028416;28;20041;-64
2022/09/08 13:28:21;;;;;;;8.95;2.00;;;;;;;14.15;79.24;100418.47;5045035;28;20057;-63
2022/09/08 13:31:12;;;;;;;7.72;2.05;;;;;;;14.10;79.87;100417.72;5044302;28;20046;-63
2022/09/08 13:34:36;;;;;;;7.85;1.95;;;;;;;13.95;79.75;100431.28;5043839;28;20111;-62
2022/09/08 13:37:49;;;;;;;9.07;2.50;;;;;;;13.88;80.34;100429.72;5044628;28;20076;-63
2022/09/08 13:40:52;;;;;;;7.38;2.15;;;;;;;13.86;80.77;100436.81;5044716;28;20072;-63
2022/09/08 13:44:13;;;;;;;5.97;1.92;;;;;;;13.86;81.09;100406.16;5014096;28;20260;-63
2022/09/08 13:47:07;;;;;;;7.32;2.00;;;;;;;13.84;81.15;100407.09;5036818;28;20068;-63
2022/09/08 13:50:20;;;;;;;7.97;1.90;;;;;;;13.91;80.54;100406.03;5044157;28;20103;-62
2022/09/08 13:53:28;;;;;;;8.75;2.15;;;;;;;13.85;80.64;100393.91;5012735;28;20121;-63
2022/09/08 13:56:22;;;;;;;10.15;2.15;;;;;;;13.96;80.83;100409.38;5043543;28;20049;-62
2022/09/08 13:59:20;;;;;;;10.48;2.33;;;;;;;13.93;80.82;100427.88;5043389;28;20060;-63
2022/09/08 14:02:33;;;;;;;7.38;2.60;;;;;;;13.85;80.78;100425.44;5043474;28;20057;-64
2022/09/08 14:05:27;;;;;;;7.22;2.20;;;;;;;13.78;81.18;100430.00;5043360;28;20045;-63
2022/09/08 14:08:22;;;;;;;8.27;2.42;;;;;;;13.84;81.08;100434.22;5043124;28;20057;-63
2022/09/08 14:11:13;;;;;;;8.85;2.83;;;;;;;13.70;81.56;100426.69;5044151;28;20084;-63
2022/09/08 14:13:55;;;;;;;8.73;2.20;;;;;;;13.73;81.79;100428.41;5043852;28;20067;-63
2022/09/08 14:16:47;;;;;;;9.20;2.42;;;;;;;13.64;82.21;100419.00;5011816;28;20050;-62
2022/09/08 14:19:44;;;;;;;9.43;2.25;;;;;;;13.57;82.21;100420.06;5040130;28;20056;-62
2022/09/08 14:22:38;;;;;;;11.70;2.90;;;;;;;13.56;81.83;100418.34;5043009;28;20060;-60
2022/09/08 14:25:21;;;;;;;11.20;2.55;;;;;;;13.64;81.95;100419.00;5043642;28;20071;-61
2022/09/08 14:28:23;;;;;;;9.30;2.30;;;;;;;13.55;81.81;100395.59;5043608;28;20156;-61
2022/09/08 14:31:06;;;;;;;9.48;2.17;;;;;;;13.55;81.95;100407.00;5043851;28;20322;-62
2022/09/08 14:33:54;;;;;;;6.20;2.05;;;;;;;13.74;81.36;100425.72;5043143;28;20057;-63
2022/09/08 14:37:14;;;;;;;10.38;2.22;;;;;;;13.75;80.90;100419.59;5043134;28;20068;-62
2022/09/08 14:40:03;;;;;;;4.32;1.77;;;;;;;13.74;80.83;100415.22;5011221;28;20088;-62
2022/09/08 14:43:10;;;;;;;10.85;1.80;;;;;;;13.78;80.34;100409.00;5009183;28;20056;-63
2022/09/08 14:45:58;;;;;;;7.75;2.13;;;;;;;13.82;80.20;100405.34;5012105;28;20080;-63
2022/09/08 14:48:59;;;;;;;9.45;1.95;;;;;;;13.72;79.92;100388.13;5043328;28;20060;-64
2022/09/08 14:51:54;;;;;;;34.50;3.65;;;;;;;13.73;80.22;100395.13;5042517;28;20065;-63
2022/09/08 14:54:48;;;;;;;18.65;2.90;;;;;;;13.72;79.85;100389.91;5043328;28;20057;-64
2022/09/08 14:57:45;;;;;;;21.70;2.97;;;;;;;13.75;79.64;100388.06;5019003;28;20081;-63
2022/09/08 15:00:45;;;;;;;96.32;7.50;;;;;;;13.69;80.04;100382.97;5043072;28;20079;-64
2022/09/08 15:03:39;;;;;;;34.58;2.58;;;;;;;13.56;80.11;100395.56;5043659;28;20053;-62
2022/09/08 15:06:38;;;;;;;12.00;2.17;;;;;;;13.41;80.61;100400.38;5043425;28;20061;-62
2022/09/08 15:09:46;;;;;;;35.65;3.58;;;;;;;13.40;81.22;100375.00;4966001;28;20046;-64